createdAt,value
2022-12-16T00:00:01.726Z,993.24
2022-12-16T00:05:01.263Z,993.22
2022-12-16T00:10:01.641Z,993.26
2022-12-16T00:15:02.036Z,993.22
2022-12-16T00:20:02.012Z,993.29
2022-12-16T00:25:02.173Z,993.35
2022-12-16T00:30:01.942Z,993.4
2022-12-16T00:35:01.826Z,993.38
2022-12-16T00:40:02.032Z,993.53
2022-12-16T00:45:01.936Z,993.54
2022-12-16T00:50:02.191Z,993.49
2022-12-16T00:55:01.932Z,993.54
2022-12-16T01:00:01.573Z,993.48
2022-12-16T01:05:01.833Z,993.48
2022-12-16T01:10:02.030Z,993.47
2022-12-16T01:15:02.272Z,993.47
2022-12-16T01:20:01.851Z,993.5
2022-12-16T01:25:01.727Z,993.48
2022-12-16T01:30:01.667Z,993.57
2022-12-16T01:35:01.795Z,993.63
2022-12-16T01:40:01.375Z,993.68
2022-12-16T01:45:01.662Z,993.69
2022-12-16T01:50:01.739Z,993.69
2022-12-16T01:55:02.169Z,993.7
2022-12-16T02:00:02.205Z,993.68
2022-12-16T02:05:01.787Z,993.73
2022-12-16T02:10:01.308Z,993.7
2022-12-16T02:15:01.329Z,993.7
2022-12-16T02:20:01.743Z,993.74
2022-12-16T02:25:01.499Z,993.79
2022-12-16T02:30:02.077Z,993.81
2022-12-16T02:35:02.177Z,993.74
2022-12-16T02:40:01.290Z,993.75
2022-12-16T02:45:01.613Z,993.76
2022-12-16T02:50:02.148Z,993.76
2022-12-16T02:55:01.893Z,993.76
2022-12-16T03:00:01.566Z,993.88
2022-12-16T03:05:01.825Z,993.85
2022-12-16T03:10:01.784Z,993.92
2022-12-16T03:15:01.558Z,993.81
2022-12-16T03:20:01.715Z,993.84
2022-12-16T03:25:01.844Z,993.79
2022-12-16T03:30:01.303Z,993.76
2022-12-16T03:35:02.101Z,993.8
2022-12-16T03:40:02.081Z,993.86
2022-12-16T03:45:02.277Z,993.92
2022-12-16T03:50:01.379Z,993.95
2022-12-16T03:55:01.328Z,993.97
2022-12-16T04:00:01.702Z,993.94
2022-12-16T04:05:01.456Z,993.89
2022-12-16T04:10:01.865Z,993.94
2022-12-16T04:15:01.281Z,993.92
2022-12-16T04:20:01.976Z,994.01
2022-12-16T04:25:02.008Z,994.11
2022-12-16T04:30:01.936Z,994.21
2022-12-16T04:35:02.026Z,994.22
2022-12-16T04:40:02.185Z,994.18
2022-12-16T04:45:02.111Z,994.19
2022-12-16T04:50:02.133Z,994.29
2022-12-16T04:55:01.260Z,994.35
2022-12-16T05:00:01.667Z,994.44
2022-12-16T05:05:01.826Z,994.5
2022-12-16T05:10:02.190Z,994.53
2022-12-16T05:15:02.059Z,994.6
2022-12-16T05:20:01.469Z,994.62
2022-12-16T05:25:01.638Z,994.65
2022-12-16T05:30:01.627Z,994.7
2022-12-16T05:35:01.640Z,994.74
2022-12-16T05:40:01.918Z,994.73
2022-12-16T05:45:02.222Z,994.77
2022-12-16T05:50:01.504Z,994.88
2022-12-16T05:55:01.708Z,994.97
2022-12-16T06:00:01.459Z,995.02
2022-12-16T06:05:02.262Z,995.08
2022-12-16T06:10:01.431Z,995.12
2022-12-16T06:15:01.754Z,995.14
2022-12-16T06:20:01.361Z,995.29
2022-12-16T06:25:01.671Z,995.42
2022-12-16T06:30:01.760Z,995.47
2022-12-16T06:35:02.234Z,995.6
2022-12-16T06:40:01.375Z,995.67
2022-12-16T06:45:01.763Z,995.7
2022-12-16T06:50:01.364Z,995.79
2022-12-16T06:55:01.741Z,995.91
2022-12-16T07:00:01.909Z,995.93
2022-12-16T07:05:01.473Z,996
2022-12-16T07:10:02.100Z,996.1
2022-12-16T07:15:01.532Z,996.19
2022-12-16T07:20:02.176Z,996.21
2022-12-16T07:25:01.761Z,996.32
2022-12-16T07:30:01.989Z,996.41
2022-12-16T07:35:01.449Z,996.56
2022-12-16T07:40:01.892Z,996.63
2022-12-16T07:45:01.508Z,996.71
2022-12-16T07:50:01.977Z,996.86
2022-12-16T07:55:02.060Z,996.88
2022-12-16T08:00:01.270Z,996.97
2022-12-16T08:05:01.821Z,997.06
2022-12-16T08:10:02.176Z,997.19
2022-12-16T08:15:02.065Z,997.21
2022-12-16T08:20:01.753Z,997.28
2022-12-16T08:25:02.141Z,997.3
2022-12-16T08:30:02.123Z,997.34
2022-12-16T08:35:01.379Z,997.4
2022-12-16T08:40:33.751Z,997.38
2022-12-16T08:45:02.058Z,997.5
2022-12-16T08:50:02.220Z,997.42
2022-12-16T08:55:02.150Z,997.44
2022-12-16T09:00:02.097Z,997.57
2022-12-16T09:05:01.329Z,997.58
2022-12-16T09:10:02.128Z,997.59
2022-12-16T09:15:01.451Z,997.52
2022-12-16T09:20:01.887Z,997.59
2022-12-16T09:25:01.855Z,997.71
2022-12-16T09:30:01.509Z,997.8
2022-12-16T09:35:01.305Z,997.84
2022-12-16T09:40:02.064Z,997.83
2022-12-16T09:45:02.246Z,997.88
2022-12-16T09:50:01.681Z,998.03
2022-12-16T09:55:01.409Z,998.12
2022-12-16T10:00:01.643Z,998.17
2022-12-16T10:05:01.864Z,998.17
2022-12-16T10:10:02.210Z,998.23
2022-12-16T10:15:01.464Z,998.33
2022-12-16T10:20:08.721Z,998.27
2022-12-16T10:25:01.328Z,998.24
2022-12-16T10:30:01.967Z,998.31
2022-12-16T10:35:01.333Z,998.3
2022-12-16T10:40:01.706Z,998.33
2022-12-16T10:45:01.846Z,998.36
2022-12-16T10:50:02.185Z,998.36
2022-12-16T10:55:01.716Z,998.36
2022-12-16T11:00:02.225Z,998.45
2022-12-16T11:05:01.529Z,998.52
2022-12-16T11:10:02.114Z,998.48
2022-12-16T11:15:27.657Z,998.45
2022-12-16T11:20:01.819Z,998.43
2022-12-16T11:25:01.969Z,998.44
2022-12-16T11:30:02.182Z,998.47
2022-12-16T11:35:01.662Z,998.44
2022-12-16T11:40:01.951Z,998.42
2022-12-16T11:45:02.262Z,998.47
2022-12-16T11:50:02.064Z,998.45
2022-12-16T11:55:02.021Z,998.52
2022-12-16T12:00:02.234Z,998.55
2022-12-16T12:05:01.487Z,998.63
2022-12-16T12:10:02.059Z,998.63
2022-12-16T12:15:01.353Z,998.69
2022-12-16T12:20:01.774Z,998.68
2022-12-16T12:25:01.748Z,998.74
2022-12-16T12:30:01.293Z,998.73
2022-12-16T12:35:01.821Z,998.79
2022-12-16T12:40:02.057Z,998.82
2022-12-16T12:45:01.927Z,998.88
2022-12-16T12:50:02.232Z,998.94
2022-12-16T12:55:02.175Z,998.93
2022-12-16T13:00:02.760Z,998.9
2022-12-16T13:05:02.192Z,998.92
2022-12-16T13:10:01.565Z,998.94
2022-12-16T13:15:01.970Z,998.93
2022-12-16T13:20:01.353Z,998.98
2022-12-16T13:25:01.423Z,998.95
2022-12-16T13:30:02.033Z,998.94
2022-12-16T13:35:02.103Z,998.98
2022-12-16T13:40:01.359Z,999.04
2022-12-16T13:45:02.077Z,999.04
2022-12-16T13:50:01.304Z,999.19
2022-12-16T13:55:01.431Z,999.27
2022-12-16T14:00:01.548Z,999.34
2022-12-16T14:05:02.091Z,999.35
2022-12-16T14:10:01.866Z,999.45
2022-12-16T14:15:02.025Z,999.59
2022-12-16T14:20:02.238Z,999.71
2022-12-16T14:25:01.719Z,999.8
2022-12-16T14:30:01.507Z,999.87
2022-12-16T14:35:01.417Z,999.84
2022-12-16T14:40:01.619Z,999.91
2022-12-16T14:45:01.358Z,999.93
2022-12-16T14:50:02.303Z,1000.04
2022-12-16T14:55:01.426Z,1000.09
2022-12-16T15:00:01.640Z,1000.17
2022-12-16T15:05:02.007Z,1000.26
2022-12-16T15:10:02.209Z,1000.27
2022-12-16T15:15:02.197Z,1000.38
2022-12-16T15:20:03.851Z,1000.42
2022-12-16T15:25:02.248Z,1000.44
2022-12-16T15:30:01.685Z,1000.51
2022-12-16T15:35:01.354Z,1000.68
2022-12-16T15:40:01.567Z,1000.82
2022-12-16T15:45:01.716Z,1000.89
2022-12-16T15:50:04.052Z,1000.96
2022-12-16T15:55:01.460Z,1001.04
2022-12-16T16:00:01.972Z,1001.11
2022-12-16T16:05:01.538Z,1001.17
2022-12-16T16:10:02.257Z,1001.19
2022-12-16T16:15:01.780Z,1001.23
2022-12-16T16:20:03.790Z,1001.35
2022-12-16T16:25:01.741Z,1001.4
2022-12-16T16:30:01.977Z,1001.42
2022-12-16T16:35:01.409Z,1001.52
2022-12-16T16:40:01.851Z,1001.65
2022-12-16T16:45:01.808Z,1001.66
2022-12-16T16:50:02.416Z,1001.87
2022-12-16T16:55:02.037Z,1001.95
2022-12-16T17:00:01.584Z,1001.99
2022-12-16T17:05:01.795Z,1002.03
2022-12-16T17:10:02.142Z,1002.1
2022-12-16T17:15:02.214Z,1002.06
2022-12-16T17:20:01.278Z,1002.09
2022-12-16T17:25:01.986Z,1002.13
2022-12-16T17:30:02.220Z,1002.17
2022-12-16T17:35:01.799Z,1002.23
2022-12-16T17:40:01.979Z,1002.33
2022-12-16T17:45:01.578Z,1002.34
2022-12-16T17:50:01.751Z,1002.54
2022-12-16T17:55:02.101Z,1002.65
2022-12-16T18:00:02.087Z,1002.65
2022-12-16T18:05:02.097Z,1002.74
2022-12-16T18:10:02.186Z,1002.81
2022-12-16T18:15:02.032Z,1002.84
2022-12-16T18:20:01.386Z,1002.86
2022-12-16T18:25:01.525Z,1002.88
2022-12-16T18:30:01.687Z,1002.89
2022-12-16T18:35:01.606Z,1002.96
2022-12-16T18:40:01.802Z,1003.11
2022-12-16T18:45:01.939Z,1003.16
2022-12-16T18:50:01.897Z,1003.21
2022-12-16T18:55:01.961Z,1003.19
2022-12-16T19:00:01.502Z,1003.15
2022-12-16T19:05:01.959Z,1003.16
2022-12-16T19:10:02.052Z,1003.15
2022-12-16T19:15:02.027Z,1003.21
2022-12-16T19:20:02.164Z,1003.36
2022-12-16T19:25:01.398Z,1003.46
2022-12-16T19:30:01.714Z,1003.54
2022-12-16T19:35:01.781Z,1003.5
2022-12-16T19:40:02.062Z,1003.61
2022-12-16T19:45:02.152Z,1003.57
2022-12-16T19:50:01.903Z,1003.65
2022-12-16T19:55:01.771Z,1003.74
2022-12-16T20:00:01.518Z,1003.83
2022-12-16T20:05:01.834Z,1003.85
2022-12-16T20:10:01.727Z,1003.84
2022-12-16T20:15:01.767Z,1003.8
2022-12-16T20:20:02.161Z,1003.92
2022-12-16T20:25:01.979Z,1003.96
2022-12-16T20:30:02.057Z,1004.04
2022-12-16T20:35:01.951Z,1004.09
2022-12-16T20:40:01.934Z,1004.02
2022-12-16T20:45:01.878Z,1004.04
2022-12-16T20:50:01.631Z,1004.1
2022-12-16T20:55:01.863Z,1004.18
2022-12-16T21:00:01.991Z,1004.22
2022-12-16T21:05:01.934Z,1004.31
2022-12-16T21:10:01.295Z,1004.38
2022-12-16T21:15:01.401Z,1004.4
2022-12-16T21:20:01.937Z,1004.46
2022-12-16T21:25:02.144Z,1004.54
2022-12-16T21:30:01.315Z,1004.55
2022-12-16T21:35:01.940Z,1004.64
2022-12-16T21:40:02.253Z,1004.75
2022-12-16T21:45:02.022Z,1004.83
2022-12-16T21:50:01.384Z,1004.91
2022-12-16T21:55:01.569Z,1004.91
2022-12-16T22:00:01.873Z,1005.02
2022-12-16T22:05:02.162Z,1005.13
2022-12-16T22:10:01.365Z,1005.15
2022-12-16T22:15:01.956Z,1005.2
2022-12-16T22:20:02.028Z,1005.28
2022-12-16T22:25:01.315Z,1005.29
2022-12-16T22:30:01.537Z,1005.36
2022-12-16T22:35:02.235Z,1005.39
2022-12-16T22:40:01.963Z,1005.43
2022-12-16T22:45:02.018Z,1005.48
2022-12-16T22:50:02.043Z,1005.51
2022-12-16T22:55:01.899Z,1005.6
2022-12-16T23:00:01.658Z,1005.61
2022-12-16T23:05:02.260Z,1005.55
2022-12-16T23:10:01.362Z,1005.52
2022-12-16T23:15:01.458Z,1005.53
2022-12-16T23:20:01.894Z,1005.57
2022-12-16T23:25:01.955Z,1005.58
2022-12-16T23:30:01.264Z,1005.59
2022-12-16T23:35:01.960Z,1005.61
2022-12-16T23:40:01.559Z,1005.67
2022-12-16T23:45:01.265Z,1005.76
2022-12-16T23:50:01.852Z,1005.77
2022-12-16T23:55:01.835Z,1005.78
